Time;durP1;ratioP1;P1;durP2;ratioP2;P2;SDS_P1;SDS_P2;PMS_P1;PMS_P2;Temp;Humidity;BMP_temperature;BMP_pressure;BME280_temperature;BME280_humidity;BME280_pressure;Samples;Min_cycle;Max_cycle;Signal;HPM_P1;HPM_P2
2021/11/21 00:02:13;;;;;;;14.47;5.57;;;;;;;;;;4940049;28;20074;-88
2021/11/21 00:04:43;;;;;;;13.03;5.73;;;;;;;;;;4932793;29;20126;-89
2021/11/21 00:07:09;;;;;;;11.50;5.27;;;;;;;;;;4942514;29;20079;-89
2021/11/21 00:09:35;;;;;;;13.73;5.70;;;;;;;;;;4934353;29;20511;-90
2021/11/21 00:12:06;;;;;;;13.60;5.53;;;;;;;;;;4926210;29;20110;-90
2021/11/21 00:14:42;;;;;;;13.27;5.87;;;;;;;;;;4932915;29;20412;-89
2021/11/21 00:17:15;;;;;;;13.30;5.67;;;;;;;;;;4948916;29;20456;-90
2021/11/21 00:19:42;;;;;;;12.67;6.07;;;;;;;;;;4938520;29;20027;-90
2021/11/21 00:22:11;;;;;;;13.43;5.90;;;;;;;;;;4941085;28;20031;-90
2021/11/21 00:24:53;;;;;;;11.70;5.13;;;;;;;;;;4932174;29;20063;-89
2021/11/21 00:27:21;;;;;;;11.73;5.13;;;;;;;;;;4938554;29;20140;-90
2021/11/21 00:29:47;;;;;;;12.03;5.23;;;;;;;;;;4923674;28;20080;-90
2021/11/21 00:32:19;;;;;;;12.63;5.87;;;;;;;;;;4940512;29;20046;-90
2021/11/21 00:34:51;;;;;;;14.07;5.82;;;;;;;;;;4927936;29;20040;-89
2021/11/21 00:37:23;;;;;;;10.40;5.30;;;;;;;;;;4940137;29;20050;-90
2021/11/21 00:40:02;;;;;;;10.13;4.85;;;;;;;;;;4933717;28;20154;-90
2021/11/21 00:42:31;;;;;;;9.93;4.80;;;;;;;;;;4936332;29;20496;-90
2021/11/21 00:45:00;;;;;;;10.43;5.00;;;;;;;;;;4943460;29;20562;-90
2021/11/21 00:47:26;;;;;;;10.13;4.43;;;;;;;;;;4937146;29;20039;-89
2021/11/21 00:49:58;;;;;;;12.67;5.27;;;;;;;;;;4932748;29;20063;-90
2021/11/21 00:52:24;;;;;;;10.67;5.27;;;;;;;;;;4939300;29;20403;-90
2021/11/21 00:54:54;;;;;;;11.33;4.63;;;;;;;;;;4942245;29;20020;-90
2021/11/21 00:57:23;;;;;;;12.20;5.17;;;;;;;;;;4933134;29;20042;-90
2021/11/21 01:00:07;;;;;;;11.57;5.30;;;;;;;;;;4953544;28;20551;-90
2021/11/21 01:02:37;;;;;;;10.60;4.83;;;;;;;;;;4958665;29;20400;-90
2021/11/21 01:05:10;;;;;;;9.23;4.60;;;;;;;;;;4950429;29;20027;-90
2021/11/21 01:07:45;;;;;;;9.33;4.80;;;;;;;;;;4935752;29;20035;-91
2021/11/21 01:10:15;;;;;;;10.90;4.80;;;;;;;;;;4958928;28;20028;-90
2021/11/21 01:12:41;;;;;;;11.20;4.40;;;;;;;;;;4955076;29;20027;-89
2021/11/21 01:15:09;;;;;;;13.07;4.93;;;;;;;;;;4946406;29;20023;-90
2021/11/21 01:17:36;;;;;;;10.20;4.77;;;;;;;;;;4936802;29;20034;-90
2021/11/21 01:20:16;;;;;;;9.90;4.47;;;;;;;;;;4943301;28;20077;-90
2021/11/21 01:22:45;;;;;;;8.53;3.97;;;;;;;;;;4933999;29;20031;-90
2021/11/21 01:25:12;;;;;;;11.67;4.57;;;;;;;;;;4947466;29;20039;-90
2021/11/21 01:27:41;;;;;;;8.77;4.10;;;;;;;;;;4944871;29;20040;-89
2021/11/21 01:30:15;;;;;;;10.13;4.67;;;;;;;;;;4944137;28;20042;-90
2021/11/21 01:32:42;;;;;;;11.47;4.63;;;;;;;;;;4939993;29;20043;-89
2021/11/21 01:35:09;;;;;;;10.23;4.40;;;;;;;;;;4941245;29;20062;-89
2021/11/21 01:37:35;;;;;;;12.27;4.93;;;;;;;;;;4939727;29;20031;-90
2021/11/21 01:40:09;;;;;;;9.67;4.63;;;;;;;;;;4940247;28;20086;-90
2021/11/21 01:42:35;;;;;;;9.43;4.60;;;;;;;;;;4949006;29;20038;-90
2021/11/21 01:45:06;;;;;;;11.80;5.13;;;;;;;;;;4939615;29;20049;-90
2021/11/21 01:47:38;;;;;;;9.43;4.13;;;;;;;;;;4945354;29;20484;-89
2021/11/21 01:50:06;;;;;;;13.63;5.35;;;;;;;;;;4944848;28;20031;-88
2021/11/21 01:52:38;;;;;;;11.00;4.93;;;;;;;;;;4942504;29;20031;-90
2021/11/21 01:55:10;;;;;;;15.63;5.18;;;;;;;;;;4944581;29;20098;-90
2021/11/21 01:57:40;;;;;;;9.63;4.28;;;;;;;;;;4941041;29;20088;-89
2021/11/21 02:00:11;;;;;;;10.57;4.43;;;;;;;;;;4946234;28;20034;-90
2021/11/21 02:02:37;;;;;;;9.53;4.07;;;;;;;;;;4927020;29;20063;-89
2021/11/21 02:05:03;;;;;;;9.57;3.73;;;;;;;;;;4940210;29;20050;-89
2021/11/21 02:07:32;;;;;;;8.57;3.30;;;;;;;;;;4947829;29;20027;-88
2021/11/21 02:10:01;;;;;;;7.87;3.40;;;;;;;;;;4934065;28;20118;-90
2021/11/21 02:12:30;;;;;;;8.97;3.53;;;;;;;;;;4944598;29;20051;-89
2021/11/21 02:15:16;;;;;;;9.23;3.87;;;;;;;;;;4952061;29;20275;-90
2021/11/21 02:17:43;;;;;;;10.43;3.97;;;;;;;;;;4931358;29;20028;-90
2021/11/21 02:20:10;;;;;;;9.87;3.83;;;;;;;;;;4945725;28;20116;-89
2021/11/21 02:22:40;;;;;;;13.50;4.27;;;;;;;;;;4946039;29;20086;-90
2021/11/21 02:25:10;;;;;;;8.80;3.90;;;;;;;;;;4946644;29;20036;-90
2021/11/21 02:27:37;;;;;;;10.37;4.00;;;;;;;;;;4937306;29;20574;-90
2021/11/21 02:30:10;;;;;;;12.53;3.77;;;;;;;;;;4943013;28;20034;-90
2021/11/21 02:32:44;;;;;;;9.83;3.73;;;;;;;;;;4931457;29;20043;-89
2021/11/21 02:35:10;;;;;;;8.20;3.43;;;;;;;;;;4941679;29;20019;-90
2021/11/21 02:37:42;;;;;;;8.60;3.23;;;;;;;;;;4931311;29;20040;-90
2021/11/21 02:40:09;;;;;;;7.22;3.50;;;;;;;;;;4933561;28;20539;-90
2021/11/21 02:42:42;;;;;;;7.97;3.43;;;;;;;;;;4943998;29;20063;-89
2021/11/21 02:45:10;;;;;;;6.37;3.00;;;;;;;;;;4947587;29;20034;-90
2021/11/21 02:47:39;;;;;;;7.37;3.43;;;;;;;;;;4952736;29;20034;-90
2021/11/21 02:50:11;;;;;;;8.90;3.57;;;;;;;;;;4948136;29;20061;-90
2021/11/21 02:52:42;;;;;;;14.45;4.05;;;;;;;;;;4944322;29;20031;-90
2021/11/21 02:55:16;;;;;;;8.40;3.77;;;;;;;;;;4942365;29;20023;-90
2021/11/21 02:57:55;;;;;;;10.67;3.70;;;;;;;;;;4941455;29;21013;-89
2021/11/21 03:00:27;;;;;;;7.30;3.10;;;;;;;;;;4934723;29;20111;-90
2021/11/21 03:02:53;;;;;;;7.35;3.22;;;;;;;;;;4942579;29;20023;-90
2021/11/21 03:05:27;;;;;;;7.13;2.93;;;;;;;;;;4939878;29;20496;-90
2021/11/21 03:08:01;;;;;;;5.87;2.73;;;;;;;;;;4937445;29;20028;-90
2021/11/21 03:10:28;;;;;;;6.73;2.90;;;;;;;;;;4927431;29;20082;-89
2021/11/21 03:12:55;;;;;;;13.23;3.13;;;;;;;;;;4950014;28;20039;-90
2021/11/21 03:15:22;;;;;;;6.53;2.73;;;;;;;;;;4938077;29;20031;-90
2021/11/21 03:17:51;;;;;;;7.67;3.03;;;;;;;;;;4930959;29;20035;-89
2021/11/21 03:20:19;;;;;;;6.17;2.77;;;;;;;;;;4942904;28;20050;-90
2021/11/21 03:22:47;;;;;;;6.13;2.70;;;;;;;;;;4933751;29;20027;-88
2021/11/21 03:25:16;;;;;;;6.77;2.87;;;;;;;;;;4926685;29;20027;-90
2021/11/21 03:27:43;;;;;;;7.00;3.20;;;;;;;;;;4945610;29;20063;-90
2021/11/21 03:30:12;;;;;;;5.30;2.63;;;;;;;;;;4943739;28;20030;-90
2021/11/21 03:32:39;;;;;;;6.40;2.77;;;;;;;;;;4947945;29;20039;-90
2021/11/21 03:35:05;;;;;;;6.63;2.83;;;;;;;;;;4946737;29;20069;-89
2021/11/21 03:37:31;;;;;;;6.10;2.80;;;;;;;;;;4929669;29;20086;-90
2021/11/21 03:40:03;;;;;;;5.57;2.77;;;;;;;;;;4939276;28;20031;-90
2021/11/21 03:42:31;;;;;;;8.57;2.97;;;;;;;;;;4935670;29;20032;-90
2021/11/21 03:44:57;;;;;;;6.13;2.97;;;;;;;;;;4973088;23;20327;-87
2021/11/21 03:47:23;;;;;;;7.07;2.80;;;;;;;;;;4953628;28;20049;-86
2021/11/21 03:49:49;;;;;;;7.00;3.07;;;;;;;;;;4956889;28;20114;-86
2021/11/21 03:52:15;;;;;;;6.47;2.80;;;;;;;;;;4957255;28;20468;-86
2021/11/21 03:54:41;;;;;;;6.93;3.10;;;;;;;;;;4976901;28;20066;-86
2021/11/21 03:57:08;;;;;;;4.87;2.80;;;;;;;;;;4965130;28;20027;-86
2021/11/21 03:59:34;;;;;;;5.33;2.30;;;;;;;;;;4971556;28;20027;-86
2021/11/21 04:02:01;;;;;;;8.17;3.33;;;;;;;;;;4975616;28;20494;-86
2021/11/21 04:04:27;;;;;;;9.37;2.93;;;;;;;;;;4957063;28;20176;-86
2021/11/21 04:06:53;;;;;;;6.83;3.10;;;;;;;;;;4953394;28;20019;-86
2021/11/21 04:09:19;;;;;;;5.33;2.53;;;;;;;;;;4971600;28;20474;-86
2021/11/21 04:11:45;;;;;;;6.77;3.00;;;;;;;;;;4950305;28;20154;-86
2021/11/21 04:14:11;;;;;;;6.30;2.73;;;;;;;;;;4968783;28;20119;-86
2021/11/21 04:16:38;;;;;;;8.60;2.80;;;;;;;;;;4953896;28;20058;-86
2021/11/21 04:19:06;;;;;;;5.10;2.40;;;;;;;;;;4971575;28;20035;-88
2021/11/21 04:21:32;;;;;;;6.60;2.67;;;;;;;;;;4954710;28;20081;-86
2021/11/21 04:23:58;;;;;;;6.03;2.63;;;;;;;;;;4971784;28;20031;-87
2021/11/21 04:26:25;;;;;;;5.57;2.43;;;;;;;;;;4956127;28;20050;-86
2021/11/21 04:28:51;;;;;;;6.27;3.00;;;;;;;;;;4975000;28;20106;-86
2021/11/21 04:31:17;;;;;;;6.40;2.93;;;;;;;;;;4962504;28;20076;-86
2021/11/21 04:33:43;;;;;;;5.23;2.50;;;;;;;;;;4955910;28;20019;-86
2021/11/21 04:36:10;;;;;;;5.97;2.77;;;;;;;;;;4979504;28;20178;-87
2021/11/21 04:38:36;;;;;;;5.07;2.17;;;;;;;;;;4960574;28;20515;-86
2021/11/21 04:41:02;;;;;;;7.63;2.70;;;;;;;;;;4982628;28;20031;-86
2021/11/21 04:43:28;;;;;;;5.37;2.73;;;;;;;;;;4963078;28;20422;-86
2021/11/21 04:45:55;;;;;;;5.93;2.90;;;;;;;;;;4955741;28;20034;-87
2021/11/21 04:48:22;;;;;;;5.53;2.40;;;;;;;;;;4962043;28;20125;-87
2021/11/21 04:50:48;;;;;;;9.93;2.90;;;;;;;;;;4977793;28;20019;-87
2021/11/21 04:53:14;;;;;;;6.33;2.47;;;;;;;;;;4976951;28;20015;-87
2021/11/21 04:55:40;;;;;;;5.23;2.47;;;;;;;;;;4972456;28;20034;-87
2021/11/21 04:58:06;;;;;;;6.00;2.40;;;;;;;;;;4958798;29;20031;-87
2021/11/21 05:00:32;;;;;;;6.00;2.80;;;;;;;;;;4963254;28;20054;-87
2021/11/21 05:02:58;;;;;;;5.57;2.50;;;;;;;;;;4964505;28;20466;-87
2021/11/21 05:05:24;;;;;;;5.70;2.50;;;;;;;;;;4975470;28;20059;-87
2021/11/21 05:07:51;;;;;;;6.83;3.20;;;;;;;;;;4959499;28;20039;-87
2021/11/21 05:10:18;;;;;;;5.53;2.43;;;;;;;;;;4976607;28;20026;-87
2021/11/21 05:12:44;;;;;;;6.10;2.67;;;;;;;;;;4975490;28;20027;-87
2021/11/21 05:15:11;;;;;;;7.20;2.57;;;;;;;;;;4960003;28;20035;-87
2021/11/21 05:17:38;;;;;;;7.27;2.43;;;;;;;;;;4960098;28;20125;-87
2021/11/21 05:20:05;;;;;;;6.13;2.40;;;;;;;;;;4977803;28;20542;-87
2021/11/21 05:22:31;;;;;;;6.73;3.17;;;;;;;;;;4960326;28;20034;-87
2021/11/21 05:24:57;;;;;;;5.40;2.73;;;;;;;;;;4959777;28;20038;-87
2021/11/21 05:27:24;;;;;;;8.30;2.80;;;;;;;;;;4976049;28;20069;-87
2021/11/21 05:29:50;;;;;;;6.10;2.63;;;;;;;;;;4973322;28;20027;-87
2021/11/21 05:32:16;;;;;;;6.80;2.97;;;;;;;;;;4941465;29;20028;-86
2021/11/21 05:34:42;;;;;;;7.23;3.20;;;;;;;;;;4940995;29;20034;-87
2021/11/21 05:37:08;;;;;;;6.73;2.77;;;;;;;;;;4958020;28;20031;-87
2021/11/21 05:39:35;;;;;;;6.47;2.53;;;;;;;;;;4954087;28;20027;-87
2021/11/21 05:42:01;;;;;;;5.20;2.50;;;;;;;;;;4977052;28;20039;-87
2021/11/21 05:44:27;;;;;;;9.87;2.63;;;;;;;;;;4958451;28;20138;-87
2021/11/21 05:46:53;;;;;;;9.50;2.83;;;;;;;;;;4958312;28;20035;-87
2021/11/21 05:49:19;;;;;;;5.73;2.57;;;;;;;;;;4958325;28;20129;-87
2021/11/21 05:51:45;;;;;;;6.87;2.50;;;;;;;;;;4958976;28;20030;-87
2021/11/21 05:54:11;;;;;;;5.83;2.73;;;;;;;;;;4977422;28;20023;-87
2021/11/21 05:56:37;;;;;;;4.93;2.43;;;;;;;;;;4974867;28;20031;-87
2021/11/21 05:59:03;;;;;;;8.87;2.77;;;;;;;;;;4959685;28;20065;-87
2021/11/21 06:01:29;;;;;;;5.97;2.83;;;;;;;;;;4959452;28;20035;-87
2021/11/21 06:03:55;;;;;;;6.50;2.80;;;;;;;;;;4959817;28;20479;-87
2021/11/21 06:06:22;;;;;;;15.20;3.60;;;;;;;;;;4955832;28;20031;-87
2021/11/21 06:08:49;;;;;;;12.23;3.00;;;;;;;;;;4956585;29;20039;-87
2021/11/21 06:11:15;;;;;;;9.93;2.43;;;;;;;;;;4956206;29;20031;-87
2021/11/21 06:13:42;;;;;;;7.60;2.43;;;;;;;;;;4965451;28;20026;-87
2021/11/21 06:16:08;;;;;;;17.47;2.57;;;;;;;;;;4973425;28;20031;-87
2021/11/21 06:18:34;;;;;;;6.97;2.27;;;;;;;;;;4955923;28;20046;-87
2021/11/21 06:21:00;;;;;;;5.07;2.03;;;;;;;;;;4951018;28;20416;-87
2021/11/21 06:23:32;;;;;;;6.83;2.07;;;;;;;;;;4972491;28;20034;-87
2021/11/21 06:25:58;;;;;;;4.60;2.23;;;;;;;;;;4968310;28;20043;-87
2021/11/21 06:28:24;;;;;;;7.63;2.40;;;;;;;;;;4937129;29;20795;-87
2021/11/21 06:30:51;;;;;;;7.20;2.27;;;;;;;;;;4954718;29;20034;-87
2021/11/21 06:33:17;;;;;;;5.63;2.17;;;;;;;;;;4938771;28;20579;-87
2021/11/21 06:35:44;;;;;;;7.43;2.23;;;;;;;;;;4955770;28;20038;-87
2021/11/21 06:38:10;;;;;;;4.40;2.20;;;;;;;;;;4956337;28;20030;-87
2021/11/21 06:40:36;;;;;;;14.77;2.57;;;;;;;;;;4956344;28;20170;-87
2021/11/21 06:43:02;;;;;;;7.33;2.43;;;;;;;;;;4955531;28;20084;-87
2021/11/21 06:45:28;;;;;;;9.97;2.70;;;;;;;;;;4955671;28;20039;-87
2021/11/21 06:47:54;;;;;;;6.10;2.40;;;;;;;;;;4955619;28;20027;-87
2021/11/21 06:50:20;;;;;;;6.53;2.57;;;;;;;;;;4972991;28;20032;-88
2021/11/21 06:52:46;;;;;;;12.13;2.77;;;;;;;;;;4973275;28;20101;-87
2021/11/21 06:55:13;;;;;;;6.00;2.43;;;;;;;;;;4955739;28;20106;-88
2021/11/21 06:57:40;;;;;;;30.87;3.27;;;;;;;;;;4972048;28;20491;-88
2021/11/21 07:00:07;;;;;;;6.93;2.53;;;;;;;;;;4962068;28;20364;-87
2021/11/21 07:02:33;;;;;;;19.23;2.53;;;;;;;;;;4962579;28;20027;-87
2021/11/21 07:04:59;;;;;;;7.43;1.93;;;;;;;;;;4979259;28;20041;-87
2021/11/21 07:07:25;;;;;;;5.00;2.20;;;;;;;;;;4955681;28;20475;-87
2021/11/21 07:09:51;;;;;;;4.87;2.00;;;;;;;;;;4973327;28;20471;-87
2021/11/21 07:12:17;;;;;;;6.07;2.00;;;;;;;;;;4955853;28;20113;-87
2021/11/21 07:14:43;;;;;;;6.63;2.33;;;;;;;;;;4955351;28;20495;-88
2021/11/21 07:17:09;;;;;;;11.23;2.00;;;;;;;;;;4972646;28;20045;-87
2021/11/21 07:19:36;;;;;;;7.50;2.50;;;;;;;;;;4973033;28;20117;-87
2021/11/21 07:22:02;;;;;;;6.03;1.83;;;;;;;;;;4955505;28;20031;-88
2021/11/21 07:24:28;;;;;;;9.60;2.17;;;;;;;;;;4972607;28;20043;-87
2021/11/21 07:26:56;;;;;;;13.00;2.43;;;;;;;;;;4967399;28;20046;-87
2021/11/21 07:29:28;;;;;;;9.83;2.00;;;;;;;;;;4936466;29;20039;-87
2021/11/21 07:31:54;;;;;;;7.78;2.30;;;;;;;;;;4936090;29;20035;-87
2021/11/21 07:34:20;;;;;;;5.30;2.43;;;;;;;;;;4960452;28;20031;-87
2021/11/21 07:36:46;;;;;;;4.67;1.90;;;;;;;;;;4954630;28;20026;-87
2021/11/21 07:39:12;;;;;;;6.33;2.90;;;;;;;;;;4972232;28;20038;-87
2021/11/21 07:41:38;;;;;;;7.03;3.17;;;;;;;;;;4971408;28;20626;-88
2021/11/21 07:44:06;;;;;;;7.87;3.37;;;;;;;;;;4968052;28;20076;-87
2021/11/21 07:46:32;;;;;;;9.03;3.20;;;;;;;;;;4935960;29;20504;-87
2021/11/21 07:48:58;;;;;;;17.93;4.17;;;;;;;;;;4935855;29;20487;-88
2021/11/21 07:51:25;;;;;;;8.70;3.30;;;;;;;;;;4939383;28;20026;-87
2021/11/21 07:53:51;;;;;;;8.00;3.60;;;;;;;;;;4972461;28;20534;-87
2021/11/21 07:56:18;;;;;;;7.47;3.27;;;;;;;;;;4970720;28;20031;-87
2021/11/21 07:58:44;;;;;;;8.70;3.53;;;;;;;;;;4970816;28;20035;-87
2021/11/21 08:01:10;;;;;;;6.83;2.80;;;;;;;;;;4958745;28;20031;-88
2021/11/21 08:03:36;;;;;;;12.07;3.00;;;;;;;;;;4976656;28;20030;-88
2021/11/21 08:06:03;;;;;;;7.07;2.87;;;;;;;;;;4959387;28;20483;-88
2021/11/21 08:08:29;;;;;;;7.60;3.40;;;;;;;;;;4977357;28;20045;-87
2021/11/21 08:10:55;;;;;;;12.87;2.93;;;;;;;;;;4977634;28;20038;-88
2021/11/21 08:13:21;;;;;;;10.20;3.17;;;;;;;;;;4976240;28;20035;-87
2021/11/21 08:15:47;;;;;;;6.70;2.83;;;;;;;;;;4944812;28;20117;-87
2021/11/21 08:18:14;;;;;;;7.63;3.10;;;;;;;;;;4970525;28;20027;-87
2021/11/21 08:20:40;;;;;;;11.27;4.20;;;;;;;;;;4972177;28;20034;-88
2021/11/21 08:23:06;;;;;;;8.80;3.53;;;;;;;;;;4971901;28;20129;-87
2021/11/21 08:25:33;;;;;;;18.53;3.60;;;;;;;;;;4949707;28;20050;-86
2021/11/21 08:27:59;;;;;;;16.20;3.83;;;;;;;;;;4942187;28;20031;-87
2021/11/21 08:30:25;;;;;;;6.50;3.23;;;;;;;;;;4974511;28;20094;-87
2021/11/21 08:32:51;;;;;;;13.00;3.70;;;;;;;;;;4974481;28;20023;-87
2021/11/21 08:35:18;;;;;;;8.77;3.83;;;;;;;;;;4942866;28;20027;-87
2021/11/21 08:37:44;;;;;;;23.80;4.23;;;;;;;;;;4956804;28;20459;-88
2021/11/21 08:40:12;;;;;;;10.53;4.10;;;;;;;;;;4973297;28;20030;-87
2021/11/21 08:42:38;;;;;;;7.83;3.60;;;;;;;;;;4956756;28;20026;-88
2021/11/21 08:45:06;;;;;;;7.37;3.60;;;;;;;;;;4953132;28;20419;-87
2021/11/21 08:47:32;;;;;;;9.87;3.50;;;;;;;;;;4972723;28;20026;-87
2021/11/21 08:49:58;;;;;;;8.43;3.13;;;;;;;;;;4956361;28;20027;-88
2021/11/21 08:52:24;;;;;;;8.23;3.50;;;;;;;;;;4946320;28;20056;-87
2021/11/21 08:54:50;;;;;;;7.50;3.40;;;;;;;;;;4942119;28;20110;-87
2021/11/21 08:57:17;;;;;;;7.53;3.53;;;;;;;;;;4974041;28;20046;-88
2021/11/21 08:59:43;;;;;;;13.50;3.67;;;;;;;;;;4971821;28;20038;-88
2021/11/21 09:02:09;;;;;;;13.13;3.80;;;;;;;;;;4947862;28;20031;-88
2021/11/21 09:04:35;;;;;;;8.27;3.80;;;;;;;;;;4956793;28;20111;-88
2021/11/21 09:07:01;;;;;;;9.10;4.13;;;;;;;;;;4974449;28;20031;-87
2021/11/21 09:09:30;;;;;;;12.07;3.47;;;;;;;;;;4942827;28;20121;-88
2021/11/21 09:11:57;;;;;;;14.43;3.83;;;;;;;;;;4954399;28;20046;-87
2021/11/21 09:14:25;;;;;;;8.17;3.20;;;;;;;;;;4944079;28;20038;-88
2021/11/21 09:16:51;;;;;;;8.73;3.70;;;;;;;;;;4970870;28;20468;-88
2021/11/21 09:19:17;;;;;;;15.90;4.43;;;;;;;;;;4952142;28;20492;-87
2021/11/21 09:21:43;;;;;;;10.57;4.07;;;;;;;;;;4972363;28;20472;-88
2021/11/21 09:24:09;;;;;;;7.57;3.40;;;;;;;;;;4972700;28;20030;-88
2021/11/21 09:26:36;;;;;;;10.67;3.40;;;;;;;;;;4970580;28;20031;-88
2021/11/21 09:29:02;;;;;;;14.47;3.93;;;;;;;;;;4971280;28;20093;-88
2021/11/21 09:31:28;;;;;;;31.83;4.27;;;;;;;;;;4945787;28;20089;-88
2021/11/21 09:33:54;;;;;;;11.00;3.50;;;;;;;;;;4954019;28;20027;-87
2021/11/21 09:36:21;;;;;;;7.57;3.67;;;;;;;;;;4972555;28;20050;-88
2021/11/21 09:38:48;;;;;;;18.50;3.47;;;;;;;;;;4943567;28;20416;-87
2021/11/21 09:41:14;;;;;;;25.67;4.10;;;;;;;;;;4973418;28;20030;-88
2021/11/21 09:43:43;;;;;;;17.90;3.83;;;;;;;;;;4945780;28;20113;-88
2021/11/21 09:46:10;;;;;;;9.40;3.17;;;;;;;;;;4969496;28;20121;-88
2021/11/21 09:48:37;;;;;;;21.20;4.13;;;;;;;;;;4948454;28;20097;-87
2021/11/21 09:51:03;;;;;;;7.90;3.07;;;;;;;;;;4967890;28;20551;-88
2021/11/21 09:53:29;;;;;;;8.30;3.30;;;;;;;;;;4941960;28;20031;-87
2021/11/21 09:55:56;;;;;;;12.43;2.80;;;;;;;;;;4971865;28;20038;-87
2021/11/21 09:58:23;;;;;;;15.03;3.27;;;;;;;;;;4948769;28;20073;-87
2021/11/21 10:00:49;;;;;;;16.40;3.57;;;;;;;;;;4952689;28;20053;-88
2021/11/21 10:03:16;;;;;;;20.00;3.57;;;;;;;;;;4968698;28;20026;-88
2021/11/21 10:05:46;;;;;;;10.27;4.30;;;;;;;;;;4953280;28;21120;-88
2021/11/21 10:08:17;;;;;;;14.07;3.47;;;;;;;;;;4969070;28;20030;-87
2021/11/21 10:10:47;;;;;;;12.30;3.80;;;;;;;;;;4972671;28;20059;-87
2021/11/21 10:13:25;;;;;;;11.00;3.70;;;;;;;;;;4970256;28;20076;-88
2021/11/21 10:15:51;;;;;;;10.60;3.23;;;;;;;;;;4952430;28;20034;-88
2021/11/21 10:18:17;;;;;;;19.87;3.97;;;;;;;;;;4971855;28;20038;-88
2021/11/21 10:20:43;;;;;;;17.97;3.90;;;;;;;;;;4970697;28;20450;-88
2021/11/21 10:23:11;;;;;;;39.87;4.50;;;;;;;;;;4969672;28;20034;-88
2021/11/21 10:25:47;;;;;;;26.57;3.70;;;;;;;;;;4954688;28;20037;-88
2021/11/21 10:28:36;;;;;;;10.97;3.30;;;;;;;;;;4994683;23;20046;-91
2021/11/21 10:31:09;;;;;;;28.23;4.60;;;;;;;;;;4971247;28;20147;-90
2021/11/21 10:33:49;;;;;;;15.77;3.90;;;;;;;;;;4971804;28;20037;-91
2021/11/21 10:39:30;;;;;;;24.43;4.73;;;;;;;;;;4958761;28;20031;-91
2021/11/21 10:41:57;;;;;;;13.37;4.33;;;;;;;;;;4952511;28;20066;-91
2021/11/21 10:44:31;;;;;;;9.10;3.30;;;;;;;;;;4955433;28;20033;-91
2021/11/21 10:47:00;;;;;;;23.57;3.87;;;;;;;;;;4957859;28;20031;-92
2021/11/21 10:49:36;;;;;;;18.07;3.90;;;;;;;;;;4957386;28;20027;-92
2021/11/21 10:52:12;;;;;;;16.83;3.90;;;;;;;;;;4951598;28;20027;-92
2021/11/21 10:54:47;;;;;;;8.97;3.77;;;;;;;;;;4957337;28;20034;-93
2021/11/21 10:57:17;;;;;;;19.17;3.80;;;;;;;;;;4969994;28;20023;-92
2021/11/21 10:59:49;;;;;;;10.90;4.73;;;;;;;;;;4957331;28;20033;-91
2021/11/21 11:02:40;;;;;;;16.92;4.25;;;;;;;;;;4957737;28;20118;-91
2021/11/21 11:05:12;;;;;;;13.80;3.63;;;;;;;;;;4957174;28;20049;-92
2021/11/21 11:07:44;;;;;;;43.55;4.60;;;;;;;;;;4959451;28;20042;-92
2021/11/21 11:10:20;;;;;;;13.95;3.80;;;;;;;;;;4937657;29;20038;-91
2021/11/21 11:12:57;;;;;;;9.43;4.03;;;;;;;;;;4938190;29;20459;-91
2021/11/21 11:15:26;;;;;;;10.63;4.33;;;;;;;;;;4961229;28;20022;-92
2021/11/21 11:17:58;;;;;;;9.33;3.67;;;;;;;;;;4957326;28;20514;-92
2021/11/21 11:20:25;;;;;;;13.25;4.65;;;;;;;;;;4957844;28;20097;-91
2021/11/21 11:22:58;;;;;;;10.67;4.60;;;;;;;;;;4974180;28;20022;-91
2021/11/21 11:25:27;;;;;;;13.33;4.30;;;;;;;;;;4956328;28;20031;-92
2021/11/21 11:27:56;;;;;;;15.07;4.20;;;;;;;;;;4958467;28;20033;-92
2021/11/21 11:30:47;;;;;;;10.57;4.07;;;;;;;;;;4977145;28;20428;-92
2021/11/21 11:33:15;;;;;;;9.93;4.07;;;;;;;;;;4950293;28;20031;-91
2021/11/21 11:35:46;;;;;;;10.07;4.40;;;;;;;;;;4958583;28;20031;-92
2021/11/21 11:38:18;;;;;;;10.13;4.37;;;;;;;;;;4977005;28;20054;-91
2021/11/21 11:40:45;;;;;;;20.00;4.33;;;;;;;;;;4959848;28;20490;-91
2021/11/21 11:46:15;;;;;;;13.33;4.70;;;;;;;;;;4945426;29;20144;-90
2021/11/21 11:48:59;;;;;;;13.03;4.10;;;;;;;;;;4958590;28;20125;-90
2021/11/21 11:51:28;;;;;;;11.70;4.90;;;;;;;;;;4976875;28;20450;-91
2021/11/21 11:53:55;;;;;;;17.73;5.20;;;;;;;;;;4958867;28;20080;-91
2021/11/21 11:56:29;;;;;;;9.67;4.03;;;;;;;;;;4959196;28;20030;-91
2021/11/21 11:58:59;;;;;;;14.23;4.60;;;;;;;;;;4964194;28;20039;-90
2021/11/21 12:01:39;;;;;;;9.73;4.30;;;;;;;;;;4953649;29;20031;-91
2021/11/21 12:04:09;;;;;;;11.60;4.47;;;;;;;;;;4953418;29;20051;-92
2021/11/21 12:06:37;;;;;;;18.23;4.40;;;;;;;;;;4954575;29;20028;-91
2021/11/21 12:09:24;;;;;;;11.93;4.93;;;;;;;;;;4952664;28;20045;-91
2021/11/21 12:11:59;;;;;;;12.23;4.33;;;;;;;;;;4952893;29;20035;-90
2021/11/21 12:14:28;;;;;;;13.23;5.13;;;;;;;;;;4952896;29;20042;-88
2021/11/21 12:16:57;;;;;;;14.63;5.67;;;;;;;;;;4953714;28;20074;-90
2021/11/21 12:19:42;;;;;;;14.20;5.53;;;;;;;;;;4956389;29;20137;-89
2021/11/21 12:22:32;;;;;;;16.53;5.37;;;;;;;;;;4956692;29;20038;-90
2021/11/21 12:25:07;;;;;;;8.80;3.30;;;;;;;;;;4952894;28;20035;-90
2021/11/21 12:27:35;;;;;;;13.37;4.63;;;;;;;;;;4953095;29;20036;-89
2021/11/21 12:30:21;;;;;;;13.10;4.67;;;;;;;;;;4953550;29;20115;-90
2021/11/21 12:32:49;;;;;;;25.03;4.97;;;;;;;;;;4955168;29;20078;-90
2021/11/21 12:35:27;;;;;;;26.40;5.50;;;;;;;;;;4954486;28;20586;-88
2021/11/21 12:38:03;;;;;;;8.33;3.97;;;;;;;;;;4937133;29;20027;-90
2021/11/21 12:40:45;;;;;;;34.43;5.07;;;;;;;;;;4954217;29;20042;-90
2021/11/21 12:43:17;;;;;;;10.70;3.33;;;;;;;;;;4938167;28;20126;-90
2021/11/21 12:45:44;;;;;;;;;;;;;;;;;;4937594;28;20063;-89
2021/11/21 12:48:24;;;;;;;17.20;4.40;;;;;;;;;;4956221;29;20326;-90
2021/11/21 12:50:51;;;;;;;23.83;5.03;;;;;;;;;;4940497;29;20078;-90
2021/11/21 12:53:23;;;;;;;21.80;6.10;;;;;;;;;;4955633;29;20039;-90
2021/11/21 12:55:50;;;;;;;12.33;4.97;;;;;;;;;;4977706;28;20034;-88
2021/11/21 12:58:27;;;;;;;14.30;4.80;;;;;;;;;;4979109;28;20027;-89
2021/11/21 13:00:55;;;;;;;16.73;5.20;;;;;;;;;;4959733;28;20384;-90
2021/11/21 13:03:22;;;;;;;15.43;5.37;;;;;;;;;;4961688;28;20030;-89
2021/11/21 13:05:54;;;;;;;14.33;4.73;;;;;;;;;;4960973;28;20031;-91
2021/11/21 13:08:28;;;;;;;26.53;5.23;;;;;;;;;;4953442;28;20031;-91
2021/11/21 13:11:04;;;;;;;19.33;4.80;;;;;;;;;;4960767;28;20143;-91
2021/11/21 13:13:34;;;;;;;21.43;5.87;;;;;;;;;;4975227;28;20035;-90
2021/11/21 13:16:07;;;;;;;13.47;5.47;;;;;;;;;;4972785;28;20031;-91
2021/11/21 13:18:37;;;;;;;12.77;5.20;;;;;;;;;;4977468;28;20034;-91
2021/11/21 13:21:14;;;;;;;19.47;5.70;;;;;;;;;;4956720;28;20046;-91
2021/11/21 13:23:51;;;;;;;10.40;4.20;;;;;;;;;;4975017;28;20084;-91
2021/11/21 13:26:25;;;;;;;14.10;4.90;;;;;;;;;;4954205;28;20447;-90
2021/11/21 13:28:58;;;;;;;11.13;4.50;;;;;;;;;;4960471;28;20126;-92
2021/11/21 13:31:58;;;;;;;14.83;5.30;;;;;;;;;;4958774;28;20042;-93
2021/11/21 13:34:37;;;;;;;25.67;5.70;;;;;;;;;;4959785;28;20039;-92
2021/11/21 13:37:38;;;;;;;15.50;5.97;;;;;;;;;;4974589;28;20491;-92
2021/11/21 13:40:12;;;;;;;13.60;4.63;;;;;;;;;;4972575;28;20035;-91
2021/11/21 13:42:39;;;;;;;14.90;5.73;;;;;;;;;;4958352;28;20034;-93
2021/11/21 13:45:26;;;;;;;14.27;5.70;;;;;;;;;;4960136;28;20050;-93
2021/11/21 13:48:13;;;;;;;;;;;;;;;;;;;;;
2021/11/21 13:50:49;;;;;;;11.57;4.70;;;;;;;;;;4978962;28;20506;-92
2021/11/21 13:53:41;;;;;;;13.30;5.80;;;;;;;;;;4964432;28;20027;-93
2021/11/21 13:56:44;;;;;;;11.60;5.15;;;;;;;;;;4953747;28;20034;-92
2021/11/21 14:02:16;;;;;;;13.87;6.00;;;;;;;;;;4970532;28;20065;-92
2021/11/21 14:04:59;;;;;;;12.43;4.93;;;;;;;;;;4959682;28;20029;-91
2021/11/21 14:07:25;;;;;;;12.87;4.77;;;;;;;;;;4961746;28;20050;-92
2021/11/21 14:09:57;;;;;;;11.50;4.50;;;;;;;;;;4966094;28;20117;-92
2021/11/21 14:12:38;;;;;;;12.52;5.45;;;;;;;;;;4960935;28;20023;-92
2021/11/21 14:15:13;;;;;;;12.23;5.03;;;;;;;;;;4961964;28;20098;-93
2021/11/21 14:17:44;;;;;;;16.10;5.70;;;;;;;;;;4960597;28;20035;-92
2021/11/21 14:20:28;;;;;;;13.70;5.43;;;;;;;;;;4964811;28;20030;-92
2021/11/21 14:23:09;;;;;;;14.00;5.27;;;;;;;;;;4960102;28;20274;-94
2021/11/21 14:25:39;;;;;;;11.73;4.63;;;;;;;;;;4958499;28;20125;-92
2021/11/21 14:28:07;;;;;;;12.73;4.47;;;;;;;;;;4958745;28;20034;-93
2021/11/21 14:30:33;;;;;;;12.37;5.17;;;;;;;;;;4958828;28;20035;-91
2021/11/21 14:33:20;;;;;;;12.87;5.27;;;;;;;;;;4974886;28;20102;-91
2021/11/21 14:35:47;;;;;;;14.23;5.30;;;;;;;;;;4958573;28;20023;-91
2021/11/21 14:38:14;;;;;;;11.93;5.10;;;;;;;;;;4958899;28;20030;-92
2021/11/21 14:40:43;;;;;;;14.23;5.50;;;;;;;;;;4959387;28;20046;-92
2021/11/21 14:43:11;;;;;;;14.83;5.60;;;;;;;;;;4958959;28;20117;-91
2021/11/21 14:45:37;;;;;;;13.30;5.07;;;;;;;;;;4957651;28;20096;-91
2021/11/21 14:48:03;;;;;;;17.37;7.20;;;;;;;;;;4957650;28;20033;-91
2021/11/21 14:50:31;;;;;;;20.30;9.27;;;;;;;;;;4957649;28;20029;-93
2021/11/21 14:53:01;;;;;;;12.83;5.57;;;;;;;;;;4960486;28;20155;-93
2021/11/21 14:55:37;;;;;;;11.77;4.87;;;;;;;;;;4958931;28;20395;-92
2021/11/21 14:58:08;;;;;;;11.83;4.93;;;;;;;;;;4954090;28;20114;-91
2021/11/21 15:00:35;;;;;;;10.02;3.72;;;;;;;;;;4957480;28;20445;-91
2021/11/21 15:03:03;;;;;;;12.47;4.47;;;;;;;;;;4956802;28;20050;-90